Time;durP1;ratioP1;P1;durP2;ratioP2;P2;SDS_P1;SDS_P2;PMS_P1;PMS_P2;Temp;Humidity;BMP_temperature;BMP_pressure;BME280_temperature;BME280_humidity;BME280_pressure;Samples;Min_cycle;Max_cycle;Signal;HPM_P1;HPM_P2
2021/08/07 00:01:18;;;;;;;6.82;4.35;;;;;;;;;;5033446;28;20444;-73
2021/08/07 00:03:44;;;;;;;8.32;4.88;;;;;;;;;;5033247;28;20022;-76
2021/08/07 00:06:10;;;;;;;6.07;5.03;;;;;;;;;;5032622;28;20032;-74
2021/08/07 00:08:36;;;;;;;12.98;5.68;;;;;;;;;;5031971;28;20073;-74
2021/08/07 00:11:02;;;;;;;6.05;5.15;;;;;;;;;;5031660;28;20044;-73
2021/08/07 00:13:28;;;;;;;8.63;6.00;;;;;;;;;;5033000;28;20391;-73
2021/08/07 00:15:53;;;;;;;10.25;5.93;;;;;;;;;;5032640;28;20025;-73
2021/08/07 00:18:20;;;;;;;28.48;18.58;;;;;;;;;;5032895;28;20386;-74
2021/08/07 00:20:46;;;;;;;53.22;30.00;;;;;;;;;;5032974;28;20025;-73
2021/08/07 00:23:12;;;;;;;17.92;11.57;;;;;;;;;;5048322;28;20427;-73
2021/08/07 00:25:38;;;;;;;477.20;295.80;;;;;;;;;;5032148;28;20032;-73
2021/08/07 00:28:04;;;;;;;262.52;136.55;;;;;;;;;;5033189;28;20022;-73
2021/08/07 00:30:31;;;;;;;345.25;171.23;;;;;;;;;;5032844;28;20025;-73
2021/08/07 00:32:56;;;;;;;39.08;18.80;;;;;;;;;;5032909;28;20045;-73
2021/08/07 00:35:22;;;;;;;8.50;4.97;;;;;;;;;;5047476;28;20530;-73
2021/08/07 00:37:48;;;;;;;6.18;5.25;;;;;;;;;;5033064;28;20356;-73
2021/08/07 00:40:14;;;;;;;8.65;4.72;;;;;;;;;;5048094;28;20446;-73
2021/08/07 00:42:40;;;;;;;6.72;5.28;;;;;;;;;;5032708;28;20025;-74
2021/08/07 00:45:07;;;;;;;6.93;4.70;;;;;;;;;;5047057;28;20056;-73
2021/08/07 00:47:33;;;;;;;5.03;4.47;;;;;;;;;;5047969;28;20051;-73
2021/08/07 00:49:59;;;;;;;6.65;4.28;;;;;;;;;;5047469;28;20064;-73
2021/08/07 00:52:24;;;;;;;673.25;394.17;;;;;;;;;;5047944;28;20517;-74
2021/08/07 00:54:52;;;;;;;15.10;7.95;;;;;;;;;;5031665;28;20041;-73
2021/08/07 00:57:18;;;;;;;8.23;4.60;;;;;;;;;;5032537;28;20534;-73
2021/08/07 00:59:44;;;;;;;6.65;4.55;;;;;;;;;;5032200;28;20061;-73
2021/08/07 01:02:13;;;;;;;11.50;4.22;;;;;;;;;;5032522;28;20033;-73
2021/08/07 01:04:41;;;;;;;5.18;3.90;;;;;;;;;;5031795;28;20022;-75
2021/08/07 01:07:07;;;;;;;4.25;3.85;;;;;;;;;;5032491;28;20025;-76
2021/08/07 01:09:51;;;;;;;5.13;4.20;;;;;;;;;;5032591;28;20021;-72
2021/08/07 01:12:20;;;;;;;6.00;4.85;;;;;;;;;;5032405;28;20071;-73
2021/08/07 01:14:46;;;;;;;5.32;4.13;;;;;;;;;;5036983;28;20030;-73
2021/08/07 01:17:18;;;;;;;8.73;5.05;;;;;;;;;;5011191;28;20021;-73
2021/08/07 01:19:51;;;;;;;7.47;4.50;;;;;;;;;;5012480;28;20072;-73
2021/08/07 01:22:18;;;;;;;5.05;4.47;;;;;;;;;;5028668;28;20026;-73
2021/08/07 01:24:44;;;;;;;8.65;5.00;;;;;;;;;;5031519;28;20026;-73
2021/08/07 01:27:23;;;;;;;6.78;4.88;;;;;;;;;;5031929;28;20360;-73
2021/08/07 01:29:50;;;;;;;6.80;4.63;;;;;;;;;;5031975;28;20017;-73
2021/08/07 01:32:16;;;;;;;9.05;4.68;;;;;;;;;;5031852;28;20036;-73
2021/08/07 01:34:43;;;;;;;5.70;4.57;;;;;;;;;;5031043;28;20031;-75
2021/08/07 01:37:09;;;;;;;6.32;4.68;;;;;;;;;;5031782;28;20071;-74
2021/08/07 01:39:35;;;;;;;7.07;4.82;;;;;;;;;;5031737;28;20108;-74
2021/08/07 01:42:01;;;;;;;7.55;4.10;;;;;;;;;;5030629;28;20121;-74
2021/08/07 01:44:27;;;;;;;8.95;5.00;;;;;;;;;;5031119;28;20116;-72
2021/08/07 01:47:02;;;;;;;7.28;4.10;;;;;;;;;;5030406;28;20026;-75
2021/08/07 01:49:48;;;;;;;9.18;3.85;;;;;;;;;;5030465;28;20032;-74
2021/08/07 01:52:21;;;;;;;4.97;3.58;;;;;;;;;;5031482;28;20116;-74
2021/08/07 01:54:49;;;;;;;5.25;4.00;;;;;;;;;;5031043;28;20403;-73
2021/08/07 01:57:20;;;;;;;6.78;4.03;;;;;;;;;;5030607;28;20036;-73
2021/08/07 01:59:48;;;;;;;7.78;3.50;;;;;;;;;;5031589;28;20032;-73
2021/08/07 02:02:14;;;;;;;4.22;3.42;;;;;;;;;;5034648;28;20018;-74
2021/08/07 02:04:40;;;;;;;7.18;3.90;;;;;;;;;;5034880;28;20053;-73
2021/08/07 02:07:07;;;;;;;7.95;4.10;;;;;;;;;;5035578;28;20102;-74
2021/08/07 02:09:33;;;;;;;6.88;4.38;;;;;;;;;;5034479;28;20115;-74
2021/08/07 02:12:00;;;;;;;5.55;4.53;;;;;;;;;;5035546;28;20025;-73
2021/08/07 02:14:27;;;;;;;5.90;3.97;;;;;;;;;;5035098;28;20072;-76
2021/08/07 02:16:54;;;;;;;4.15;3.72;;;;;;;;;;5035150;28;20483;-73
2021/08/07 02:19:20;;;;;;;8.27;4.20;;;;;;;;;;5034021;28;20092;-73
2021/08/07 02:21:46;;;;;;;4.88;3.45;;;;;;;;;;5035142;28;20105;-73
2021/08/07 02:24:13;;;;;;;5.28;3.90;;;;;;;;;;5035204;28;20033;-76
2021/08/07 02:26:39;;;;;;;8.10;3.45;;;;;;;;;;5034671;28;20026;-74
2021/08/07 02:29:06;;;;;;;9.15;4.18;;;;;;;;;;5033030;28;20032;-73
2021/08/07 02:31:32;;;;;;;5.85;3.45;;;;;;;;;;5015985;28;20428;-73
2021/08/07 02:33:59;;;;;;;7.60;3.60;;;;;;;;;;5014106;28;20202;-73
2021/08/07 02:36:25;;;;;;;3.72;3.30;;;;;;;;;;5014467;28;20152;-71
2021/08/07 02:38:51;;;;;;;4.35;3.53;;;;;;;;;;5014209;28;20029;-73
2021/08/07 02:41:18;;;;;;;4.43;3.80;;;;;;;;;;5015140;28;20318;-73
2021/08/07 02:43:44;;;;;;;9.07;3.80;;;;;;;;;;5013673;28;20037;-73
2021/08/07 02:46:10;;;;;;;7.15;3.80;;;;;;;;;;5013263;28;20022;-73
2021/08/07 02:48:36;;;;;;;5.35;3.67;;;;;;;;;;5014234;28;20422;-74
2021/08/07 02:51:02;;;;;;;4.45;3.28;;;;;;;;;;5015434;28;20026;-74
2021/08/07 02:53:29;;;;;;;4.38;3.78;;;;;;;;;;5014649;28;20030;-74
2021/08/07 02:55:55;;;;;;;4.65;3.20;;;;;;;;;;5014132;28;20033;-72
2021/08/07 02:58:21;;;;;;;5.55;3.40;;;;;;;;;;5014834;28;20057;-73
2021/08/07 03:00:47;;;;;;;3.95;3.10;;;;;;;;;;5029956;28;20038;-73
2021/08/07 03:03:13;;;;;;;4.30;3.90;;;;;;;;;;5014944;28;20022;-73
2021/08/07 03:05:39;;;;;;;4.45;3.25;;;;;;;;;;5014214;28;20507;-73
2021/08/07 03:08:05;;;;;;;7.35;4.18;;;;;;;;;;5030023;28;20026;-73
2021/08/07 03:10:31;;;;;;;6.38;3.47;;;;;;;;;;5014728;28;20088;-73
2021/08/07 03:12:57;;;;;;;5.68;3.70;;;;;;;;;;5014117;28;20451;-73
2021/08/07 03:15:24;;;;;;;5.32;3.75;;;;;;;;;;5014277;28;20026;-73
2021/08/07 03:17:50;;;;;;;6.90;3.90;;;;;;;;;;5014674;28;20026;-73
2021/08/07 03:20:16;;;;;;;6.55;4.10;;;;;;;;;;4996924;28;20054;-73
2021/08/07 03:22:43;;;;;;;7.70;3.83;;;;;;;;;;5014397;28;20037;-72
2021/08/07 03:25:09;;;;;;;10.75;4.07;;;;;;;;;;5012373;28;20116;-72
2021/08/07 03:27:35;;;;;;;5.57;3.90;;;;;;;;;;5012694;28;20049;-73
2021/08/07 03:30:01;;;;;;;5.50;3.83;;;;;;;;;;5014425;28;20034;-75
2021/08/07 03:32:27;;;;;;;4.68;3.35;;;;;;;;;;5014360;28;20030;-73
2021/08/07 03:34:53;;;;;;;12.18;3.80;;;;;;;;;;5017106;28;20116;-73
2021/08/07 03:37:19;;;;;;;7.43;3.92;;;;;;;;;;5029474;28;20065;-73
2021/08/07 03:39:45;;;;;;;3.83;3.50;;;;;;;;;;5029330;28;20029;-72
2021/08/07 03:42:11;;;;;;;6.22;3.25;;;;;;;;;;5014257;28;20021;-72
2021/08/07 03:44:37;;;;;;;5.03;3.40;;;;;;;;;;5028822;28;20030;-71
2021/08/07 03:47:03;;;;;;;6.30;3.72;;;;;;;;;;5029327;28;20030;-71
2021/08/07 03:49:29;;;;;;;4.95;3.25;;;;;;;;;;5014054;28;20026;-73
2021/08/07 03:51:56;;;;;;;5.07;3.17;;;;;;;;;;5013878;28;20026;-73
2021/08/07 03:54:22;;;;;;;7.18;3.28;;;;;;;;;;5028607;28;20064;-73
2021/08/07 03:56:48;;;;;;;7.22;3.20;;;;;;;;;;5013331;28;20404;-72
2021/08/07 03:59:14;;;;;;;6.40;3.03;;;;;;;;;;5013728;28;20395;-73
2021/08/07 04:01:40;;;;;;;5.28;3.00;;;;;;;;;;5013837;28;20018;-73
2021/08/07 04:04:07;;;;;;;9.07;3.38;;;;;;;;;;5013473;28;20030;-74
2021/08/07 04:06:33;;;;;;;7.35;3.08;;;;;;;;;;5013045;28;20472;-76
2021/08/07 04:08:59;;;;;;;10.55;3.00;;;;;;;;;;5029297;28;20051;-73
2021/08/07 04:11:25;;;;;;;7.82;3.00;;;;;;;;;;5013401;28;20022;-73
2021/08/07 04:13:51;;;;;;;6.25;2.95;;;;;;;;;;5013314;28;20529;-72
2021/08/07 04:16:17;;;;;;;3.60;3.13;;;;;;;;;;5028014;28;20479;-73
2021/08/07 04:18:43;;;;;;;5.75;2.60;;;;;;;;;;5013387;28;20092;-74
2021/08/07 04:21:08;;;;;;;4.72;2.97;;;;;;;;;;5023967;28;20030;-73
2021/08/07 04:23:35;;;;;;;7.45;2.90;;;;;;;;;;5032249;28;20025;-73
2021/08/07 04:26:00;;;;;;;3.28;2.95;;;;;;;;;;5032592;28;20034;-73
2021/08/07 04:28:26;;;;;;;5.80;2.95;;;;;;;;;;5032867;28;20098;-73
2021/08/07 04:30:52;;;;;;;3.47;2.25;;;;;;;;;;5047373;28;20479;-75
2021/08/07 04:33:18;;;;;;;2.65;2.38;;;;;;;;;;5030699;28;20584;-74
2021/08/07 04:35:44;;;;;;;6.28;3.00;;;;;;;;;;5045748;28;20033;-73
2021/08/07 04:38:10;;;;;;;2.88;1.88;;;;;;;;;;5031211;28;20029;-74
2021/08/07 04:40:36;;;;;;;7.57;1.83;;;;;;;;;;5031524;28;20026;-72
2021/08/07 04:43:03;;;;;;;3.35;1.58;;;;;;;;;;5031644;28;20049;-72
2021/08/07 04:45:29;;;;;;;3.38;1.85;;;;;;;;;;5031715;28;20037;-74
2021/08/07 04:48:02;;;;;;;6.03;1.30;;;;;;;;;;5048566;28;20383;-73
2021/08/07 04:50:29;;;;;;;3.33;1.73;;;;;;;;;;5033854;28;20044;-73
2021/08/07 04:52:55;;;;;;;2.53;1.27;;;;;;;;;;5033144;28;20033;-72
2021/08/07 04:55:22;;;;;;;3.22;1.25;;;;;;;;;;5032806;28;20040;-72
2021/08/07 04:57:48;;;;;;;2.63;1.27;;;;;;;;;;5033244;28;20025;-72
2021/08/07 05:00:14;;;;;;;2.00;1.55;;;;;;;;;;5048296;28;20036;-75
2021/08/07 05:02:40;;;;;;;4.10;2.13;;;;;;;;;;5047760;28;20049;-72
2021/08/07 05:05:07;;;;;;;3.33;1.48;;;;;;;;;;5046907;28;20111;-72
2021/08/07 05:07:33;;;;;;;3.28;1.35;;;;;;;;;;5032467;28;20060;-72
2021/08/07 05:10:03;;;;;;;1.65;1.08;;;;;;;;;;5048058;28;20030;-73
2021/08/07 05:12:29;;;;;;;4.38;1.25;;;;;;;;;;5032783;28;20100;-73
2021/08/07 05:14:55;;;;;;;2.03;1.02;;;;;;;;;;5031629;28;20049;-73
2021/08/07 05:17:22;;;;;;;2.75;1.17;;;;;;;;;;5047800;28;20033;-72
2021/08/07 05:19:48;;;;;;;2.20;1.27;;;;;;;;;;5032625;28;20026;-72
2021/08/07 05:22:14;;;;;;;2.90;1.27;;;;;;;;;;5032513;28;20364;-72
2021/08/07 05:24:40;;;;;;;2.80;1.02;;;;;;;;;;5031758;28;20450;-72
2021/08/07 05:27:06;;;;;;;2.30;0.77;;;;;;;;;;5030679;28;20036;-72
2021/08/07 05:29:32;;;;;;;4.15;1.00;;;;;;;;;;5031743;28;20025;-72
2021/08/07 05:31:58;;;;;;;3.22;0.80;;;;;;;;;;5030579;28;20491;-72
2021/08/07 05:34:24;;;;;;;2.45;0.93;;;;;;;;;;5031063;28;20155;-73
2021/08/07 05:36:49;;;;;;;0.70;0.70;;;;;;;;;;5013224;28;20033;-72
2021/08/07 05:39:15;;;;;;;3.15;0.90;;;;;;;;;;5011935;28;20430;-72
2021/08/07 05:41:41;;;;;;;1.88;0.90;;;;;;;;;;5011833;28;20394;-74
2021/08/07 05:44:07;;;;;;;2.45;0.50;;;;;;;;;;5011873;28;20112;-75
2021/08/07 05:46:33;;;;;;;2.50;0.77;;;;;;;;;;5011242;28;20033;-72
2021/08/07 05:48:59;;;;;;;1.25;0.88;;;;;;;;;;5012003;28;20018;-72
2021/08/07 05:51:25;;;;;;;1.73;0.70;;;;;;;;;;5012101;28;20030;-71
2021/08/07 05:53:53;;;;;;;5.88;1.10;;;;;;;;;;5026284;23;20061;-71
2021/08/07 05:56:19;;;;;;;1.10;0.57;;;;;;;;;;5026191;28;20038;-71
2021/08/07 05:58:45;;;;;;;3.38;0.70;;;;;;;;;;5019666;28;20026;-72
2021/08/07 06:01:11;;;;;;;1.33;0.80;;;;;;;;;;4992233;28;20058;-72
2021/08/07 06:03:37;;;;;;;3.45;0.82;;;;;;;;;;4992472;28;20486;-73
2021/08/07 06:06:03;;;;;;;1.83;0.60;;;;;;;;;;4991671;28;20110;-73
2021/08/07 06:08:29;;;;;;;1.08;0.52;;;;;;;;;;4992306;28;20500;-73
2021/08/07 06:10:55;;;;;;;1.00;0.80;;;;;;;;;;4992567;28;20089;-71
2021/08/07 06:13:22;;;;;;;11.57;8.85;;;;;;;;;;4992329;28;20030;-72
2021/08/07 06:15:48;;;;;;;33.05;26.00;;;;;;;;;;4991631;28;20436;-71
2021/08/07 06:18:14;;;;;;;42.92;36.47;;;;;;;;;;4991346;28;20472;-71
2021/08/07 06:20:40;;;;;;;5.25;2.45;;;;;;;;;;4998644;28;20109;-71
2021/08/07 06:23:06;;;;;;;28.75;20.10;;;;;;;;;;5010349;28;20468;-72
2021/08/07 06:25:32;;;;;;;11.32;6.38;;;;;;;;;;5010837;28;20026;-70
2021/08/07 06:27:58;;;;;;;3.15;2.13;;;;;;;;;;5010659;28;20022;-71
2021/08/07 06:30:26;;;;;;;4.68;2.60;;;;;;;;;;5012394;28;20033;-72
2021/08/07 06:32:52;;;;;;;2.35;0.70;;;;;;;;;;5011820;28;20026;-71
2021/08/07 06:35:18;;;;;;;10.52;5.28;;;;;;;;;;5009863;28;20026;-73
2021/08/07 06:37:44;;;;;;;3.53;2.10;;;;;;;;;;5010182;28;20172;-72
2021/08/07 06:40:10;;;;;;;3.35;0.82;;;;;;;;;;5011447;28;20116;-70
2021/08/07 06:42:36;;;;;;;3.28;1.30;;;;;;;;;;5010170;28;20116;-71
2021/08/07 06:45:02;;;;;;;3.00;1.15;;;;;;;;;;5010645;28;20072;-71
2021/08/07 06:47:28;;;;;;;2.17;0.73;;;;;;;;;;5012903;28;20152;-70
2021/08/07 06:49:54;;;;;;;3.28;0.88;;;;;;;;;;5015260;28;20483;-71
2021/08/07 06:52:20;;;;;;;1.48;0.65;;;;;;;;;;5014952;28;20033;-71
2021/08/07 06:54:46;;;;;;;1.45;0.50;;;;;;;;;;5012777;28;20655;-71
2021/08/07 06:57:19;;;;;;;4.30;1.05;;;;;;;;;;5014918;28;20052;-71
2021/08/07 06:59:45;;;;;;;2.10;0.88;;;;;;;;;;5014773;28;20026;-72
2021/08/07 07:02:11;;;;;;;1.75;0.55;;;;;;;;;;5013520;28;20030;-72
2021/08/07 07:04:37;;;;;;;1.90;0.70;;;;;;;;;;4998577;28;20041;-73
2021/08/07 07:07:03;;;;;;;2.75;0.98;;;;;;;;;;4995081;28;20026;-72
2021/08/07 07:09:30;;;;;;;18.98;11.80;;;;;;;;;;4993618;28;20061;-72
2021/08/07 07:11:56;;;;;;;12.23;9.02;;;;;;;;;;4993317;28;20022;-72
2021/08/07 07:14:22;;;;;;;1.90;0.55;;;;;;;;;;4994412;28;20104;-71
2021/08/07 07:16:48;;;;;;;1.60;0.60;;;;;;;;;;4993239;28;20042;-72
2021/08/07 07:19:14;;;;;;;1.50;0.65;;;;;;;;;;4994782;28;20022;-72
2021/08/07 07:21:40;;;;;;;2.33;0.70;;;;;;;;;;5009318;28;20079;-71
2021/08/07 07:24:06;;;;;;;2.85;1.23;;;;;;;;;;5009664;28;20495;-72
2021/08/07 07:26:32;;;;;;;13.25;7.57;;;;;;;;;;4997617;28;20049;-71
2021/08/07 07:28:58;;;;;;;5.03;3.55;;;;;;;;;;4996272;28;20053;-72
2021/08/07 07:31:25;;;;;;;3.53;1.90;;;;;;;;;;5014171;28;20025;-72
2021/08/07 07:33:51;;;;;;;1.58;0.80;;;;;;;;;;5012730;28;20068;-70
2021/08/07 07:36:17;;;;;;;1.20;0.70;;;;;;;;;;5012133;28;20036;-71
2021/08/07 07:38:46;;;;;;;1.33;0.75;;;;;;;;;;5013384;28;20458;-71
2021/08/07 07:41:13;;;;;;;2.55;0.50;;;;;;;;;;5011527;28;20401;-71
2021/08/07 07:43:39;;;;;;;0.45;0.30;;;;;;;;;;4994402;28;20030;-71
2021/08/07 07:46:05;;;;;;;0.95;0.65;;;;;;;;;;4992398;28;20318;-72
2021/08/07 07:48:31;;;;;;;3.25;0.70;;;;;;;;;;4993109;28;20030;-72
2021/08/07 07:50:57;;;;;;;3.22;0.93;;;;;;;;;;4994112;28;20051;-72
2021/08/07 07:53:23;;;;;;;3.10;0.60;;;;;;;;;;4994347;28;20030;-71
2021/08/07 07:55:52;;;;;;;1.77;0.80;;;;;;;;;;4993534;28;20041;-71
2021/08/07 07:58:18;;;;;;;0.82;0.43;;;;;;;;;;4994803;28;20162;-70
2021/08/07 08:00:44;;;;;;;2.67;0.50;;;;;;;;;;4993993;28;20531;-73
2021/08/07 08:03:10;;;;;;;1.10;0.55;;;;;;;;;;4992834;28;20031;-72
2021/08/07 08:05:36;;;;;;;0.40;0.40;;;;;;;;;;4993232;28;20073;-73
2021/08/07 08:08:02;;;;;;;2.85;0.57;;;;;;;;;;4993989;28;20018;-73
2021/08/07 08:10:28;;;;;;;3.40;0.68;;;;;;;;;;4994065;28;20121;-72
2021/08/07 08:12:54;;;;;;;1.15;0.60;;;;;;;;;;4993990;28;20030;-74
2021/08/07 08:15:20;;;;;;;0.80;0.50;;;;;;;;;;4991605;28;20030;-72
2021/08/07 08:17:47;;;;;;;0.73;0.43;;;;;;;;;;4994517;28;20105;-74
2021/08/07 08:20:13;;;;;;;1.67;0.70;;;;;;;;;;4994487;28;20554;-72
2021/08/07 08:22:39;;;;;;;1.77;0.45;;;;;;;;;;5013385;28;20448;-72
2021/08/07 08:25:07;;;;;;;1.55;0.60;;;;;;;;;;5011141;28;20411;-72
2021/08/07 08:27:33;;;;;;;1.58;0.60;;;;;;;;;;5014128;28;20014;-72
2021/08/07 08:29:59;;;;;;;3.42;1.58;;;;;;;;;;5014913;28;20029;-72
2021/08/07 08:32:25;;;;;;;4.05;2.97;;;;;;;;;;5013729;28;20036;-72
2021/08/07 08:34:50;;;;;;;2.00;1.38;;;;;;;;;;5012497;28;20033;-71
2021/08/07 08:37:16;;;;;;;4.90;0.57;;;;;;;;;;5013098;28;20472;-72
2021/08/07 08:39:42;;;;;;;1.02;0.57;;;;;;;;;;5013048;28;20030;-71
2021/08/07 08:42:09;;;;;;;1.65;0.60;;;;;;;;;;5013344;28;20030;-71
2021/08/07 08:44:35;;;;;;;0.60;0.50;;;;;;;;;;5012594;28;20064;-72
2021/08/07 08:47:01;;;;;;;6.03;0.80;;;;;;;;;;5010900;28;20022;-71
2021/08/07 08:49:28;;;;;;;3.33;0.68;;;;;;;;;;5011383;28;20022;-69
2021/08/07 08:51:55;;;;;;;2.05;0.40;;;;;;;;;;5012398;28;20026;-71
2021/08/07 08:54:20;;;;;;;2.72;0.80;;;;;;;;;;5011595;28;20044;-71
2021/08/07 08:56:50;;;;;;;1.15;0.55;;;;;;;;;;5010026;28;20022;-69
2021/08/07 08:59:19;;;;;;;1.42;0.55;;;;;;;;;;5011652;28;20193;-69
2021/08/07 09:01:45;;;;;;;1.90;0.57;;;;;;;;;;5011793;28;20022;-71
2021/08/07 09:04:11;;;;;;;1.63;0.75;;;;;;;;;;5011623;28;20097;-68
2021/08/07 09:06:37;;;;;;;17.13;15.77;;;;;;;;;;5011029;28;20491;-69
2021/08/07 09:09:04;;;;;;;4.50;4.10;;;;;;;;;;5011871;28;20033;-68
2021/08/07 09:11:31;;;;;;;0.88;0.80;;;;;;;;;;5011533;28;20032;-70
2021/08/07 09:14:12;;;;;;;3.33;0.68;;;;;;;;;;5011866;28;20030;-69
2021/08/07 09:16:38;;;;;;;1.08;0.85;;;;;;;;;;5011570;28;20099;-69
2021/08/07 09:19:04;;;;;;;1.33;0.60;;;;;;;;;;5012209;28;20085;-70
2021/08/07 09:21:30;;;;;;;1.35;0.57;;;;;;;;;;5011746;28;20032;-71
2021/08/07 09:24:08;;;;;;;2.25;0.60;;;;;;;;;;5010072;28;20033;-70
2021/08/07 09:26:34;;;;;;;1.02;0.68;;;;;;;;;;5009520;28;20472;-71
2021/08/07 09:29:00;;;;;;;1.20;0.63;;;;;;;;;;5009266;28;20026;-72
2021/08/07 09:31:27;;;;;;;1.20;0.50;;;;;;;;;;5009050;28;20479;-71
2021/08/07 09:34:25;;;;;;;1.05;0.40;;;;;;;;;;5010650;28;20113;-72
2021/08/07 09:36:53;;;;;;;0.85;0.38;;;;;;;;;;4983843;28;20042;-72
2021/08/07 09:39:38;;;;;;;0.55;0.43;;;;;;;;;;4992789;28;20117;-69
2021/08/07 09:42:04;;;;;;;2.17;0.63;;;;;;;;;;4992228;28;20023;-69
2021/08/07 09:44:30;;;;;;;1.40;0.65;;;;;;;;;;4993927;28;20061;-69
2021/08/07 09:47:04;;;;;;;4.05;0.75;;;;;;;;;;5011587;28;20526;-69
2021/08/07 09:49:37;;;;;;;1.67;0.52;;;;;;;;;;5011363;28;20026;-68
2021/08/07 09:52:03;;;;;;;1.42;0.73;;;;;;;;;;5011522;28;20484;-69
2021/08/07 09:54:55;;;;;;;3.83;2.75;;;;;;;;;;5009256;28;20484;-69
2021/08/07 09:57:28;;;;;;;2.20;0.70;;;;;;;;;;5007587;28;20503;-69
2021/08/07 09:59:54;;;;;;;4.90;1.30;;;;;;;;;;5011724;28;20541;-68
2021/08/07 10:02:27;;;;;;;3.75;0.82;;;;;;;;;;5010818;28;20105;-67
2021/08/07 10:04:53;;;;;;;1.67;0.73;;;;;;;;;;5009375;28;20488;-67
2021/08/07 10:07:19;;;;;;;1.23;0.50;;;;;;;;;;5010258;28;20105;-69
2021/08/07 10:09:46;;;;;;;0.73;0.43;;;;;;;;;;5010660;28;20021;-67
2021/08/07 10:12:13;;;;;;;0.77;0.40;;;;;;;;;;5009997;28;20022;-67
2021/08/07 10:14:41;;;;;;;1.00;0.63;;;;;;;;;;5009842;28;20224;-66
2021/08/07 10:17:08;;;;;;;4.82;0.70;;;;;;;;;;5011389;28;20030;-67
2021/08/07 10:19:35;;;;;;;2.13;0.63;;;;;;;;;;5011664;28;20030;-67
2021/08/07 10:22:06;;;;;;;6.20;0.60;;;;;;;;;;5011843;28;20026;-67
2021/08/07 10:24:32;;;;;;;1.48;0.73;;;;;;;;;;5008698;28;20392;-67
2021/08/07 10:26:58;;;;;;;3.40;0.65;;;;;;;;;;5014972;28;20066;-67
2021/08/07 10:29:26;;;;;;;1.25;0.75;;;;;;;;;;5013908;28;20080;-67
2021/08/07 10:31:53;;;;;;;0.52;0.40;;;;;;;;;;5013428;28;20026;-67
2021/08/07 10:34:19;;;;;;;2.75;0.70;;;;;;;;;;5013107;28;20365;-66
2021/08/07 10:36:45;;;;;;;4.35;1.42;;;;;;;;;;5013300;28;20030;-67
2021/08/07 10:39:11;;;;;;;1.80;1.17;;;;;;;;;;5012613;28;20080;-68
2021/08/07 10:41:37;;;;;;;1.85;0.82;;;;;;;;;;5001473;28;20031;-67
2021/08/07 10:44:05;;;;;;;2.38;0.68;;;;;;;;;;4994186;28;20101;-65
2021/08/07 10:46:32;;;;;;;3.05;0.80;;;;;;;;;;4993315;28;20027;-66
2021/08/07 10:48:58;;;;;;;1.20;0.73;;;;;;;;;;4995607;28;20031;-66
2021/08/07 10:51:24;;;;;;;1.00;0.57;;;;;;;;;;4995597;28;20036;-67
2021/08/07 10:53:57;;;;;;;1.73;0.65;;;;;;;;;;4993937;28;20023;-67
2021/08/07 10:56:29;;;;;;;1.00;0.70;;;;;;;;;;4995715;28;20036;-65
2021/08/07 10:58:56;;;;;;;2.78;1.02;;;;;;;;;;5004900;28;20026;-66
2021/08/07 11:01:25;;;;;;;0.95;0.60;;;;;;;;;;5015406;28;20034;-67
2021/08/07 11:03:51;;;;;;;0.88;0.60;;;;;;;;;;5015503;28;20022;-67
2021/08/07 11:06:17;;;;;;;4.47;0.52;;;;;;;;;;5013333;28;20032;-66
2021/08/07 11:08:44;;;;;;;2.35;0.82;;;;;;;;;;5014087;28;20028;-66
2021/08/07 11:11:29;;;;;;;4.15;0.80;;;;;;;;;;5013712;28;20040;-67
2021/08/07 11:14:15;;;;;;;1.48;0.75;;;;;;;;;;5012247;28;20054;-67
2021/08/07 11:16:40;;;;;;;1.17;0.45;;;;;;;;;;5012636;28;20402;-67
2021/08/07 11:19:25;;;;;;;0.85;0.50;;;;;;;;;;5013827;28;20034;-67
2021/08/07 11:21:51;;;;;;;1.92;0.70;;;;;;;;;;5015371;28;20034;-66
2021/08/07 11:24:36;;;;;;;1.55;0.50;;;;;;;;;;5015591;28;20030;-65
2021/08/07 11:27:02;;;;;;;1.83;1.08;;;30.00;35.80;;;;;;5016123;28;20034;-66
2021/08/07 11:29:27;;;;;;;8.55;6.43;;;30.10;34.80;;;;;;5016676;28;20030;-66
2021/08/07 11:32:15;;;;;;;1.83;1.25;;;30.10;35.20;;;;;;5014846;28;20036;-66
2021/08/07 11:34:49;;;;;;;3.15;0.82;;;30.20;34.60;;;;;;5014393;28;20560;-66
2021/08/07 11:37:17;;;;;;;2.55;0.77;;;30.00;33.40;;;;;;5013970;28;20077;-67
2021/08/07 11:40:04;;;;;;;2.13;0.77;;;30.00;35.30;;;;;;5015193;28;20046;-66
2021/08/07 11:42:33;;;;;;;1.48;0.82;;;30.10;34.30;;;;;;5013535;28;20028;-66
2021/08/07 11:45:00;;;;;;;2.28;0.52;;;29.90;35.50;;;;;;5012852;28;20026;-65
2021/08/07 11:47:25;;;;;;;2.38;0.93;;;29.70;36.10;;;;;;5015392;28;20105;-65
2021/08/07 11:49:51;;;;;;;2.70;1.80;;;29.50;35.80;;;;;;5014880;28;20058;-67
2021/08/07 11:52:17;;;;;;;1.70;0.80;;;29.40;37.00;;;;;;5013879;28;20022;-66
2021/08/07 11:54:43;;;;;;;7.82;5.88;;;28.90;37.30;;;;;;5037197;23;20103;-69
2021/08/07 11:57:24;;;;;;;5.68;2.92;;;28.70;38.00;;;;;;5029789;28;20018;-69
2021/08/07 11:59:50;;;;;;;53.80;36.70;;;28.30;38.90;;;;;;5025359;28;20458;-69
2021/08/07 12:02:16;;;;;;;2.60;1.48;;;28.00;39.90;;;;;;5026148;28;20057;-70
2021/08/07 12:04:42;;;;;;;8.02;3.70;;;28.00;40.60;;;;;;5035624;28;20168;-70
2021/08/07 12:07:12;;;;;;;1.65;1.15;;;27.90;40.20;;;;;;5044905;28;20487;-70
2021/08/07 12:09:57;;;;;;;1.75;0.93;;;27.90;40.60;;;;;;5033351;28;20509;-69
2021/08/07 12:12:23;;;;;;;1.55;0.80;;;27.50;40.00;;;;;;5036928;28;20029;-70
2021/08/07 12:14:49;;;;;;;3.70;0.60;;;27.30;41.40;;;;;;5051256;28;20556;-71
2021/08/07 12:17:15;;;;;;;6.70;1.05;;;27.20;41.20;;;;;;5052650;28;20028;-70
2021/08/07 12:19:40;;;;;;;1.73;0.95;;;27.40;41.20;;;;;;5052775;28;20025;-69
2021/08/07 12:22:06;;;;;;;2.28;0.77;;;27.40;40.40;;;;;;5052485;28;20043;-69
2021/08/07 12:24:31;;;;;;;1.10;0.70;;;27.50;38.90;;;;;;5051751;28;20075;-69
2021/08/07 12:26:59;;;;;;;1.33;0.82;;;27.40;41.00;;;;;;5052471;28;20473;-69
2021/08/07 12:29:30;;;;;;;2.85;1.25;;;27.20;41.10;;;;;;5052977;28;20100;-69
2021/08/07 12:31:58;;;;;;;2.50;0.75;;;27.00;40.40;;;;;;5050616;28;20025;-69
2021/08/07 12:34:29;;;;;;;7.80;4.35;;;26.90;41.60;;;;;;5049810;28;20036;-69
2021/08/07 12:37:00;;;;;;;6.10;3.63;;;26.70;41.00;;;;;;5032671;28;20024;-68
2021/08/07 12:39:28;;;;;;;1.95;1.13;;;26.50;40.80;;;;;;5032564;28;20025;-69
2021/08/07 12:41:54;;;;;;;0.95;0.60;;;26.50;40.90;;;;;;5032418;28;20042;-69
2021/08/07 12:44:26;;;;;;;3.58;0.95;;;26.30;41.50;;;;;;5031310;28;20018;-69
2021/08/07 12:46:59;;;;;;;4.90;1.00;;;26.20;43.60;;;;;;5032250;28;20036;-68
2021/08/07 12:49:42;;;;;;;1.63;0.93;;;26.30;42.70;;;;;;5032562;28;20017;-69
2021/08/07 12:52:18;;;;;;;2.97;0.93;;;26.50;42.80;;;;;;5032527;28;20035;-68
2021/08/07 12:55:03;;;;;;;1.13;0.85;;;26.80;42.90;;;;;;5031480;28;20108;-68
2021/08/07 12:57:29;;;;;;;1.73;1.00;;;27.20;42.20;;;;;;5032276;28;20541;-68
2021/08/07 12:59:55;;;;;;;1.05;0.65;;;27.50;41.50;;;;;;5032314;28;20033;-68
2021/08/07 13:02:23;;;;;;;2.15;0.90;;;27.90;40.80;;;;;;5031150;28;20018;-69
2021/08/07 13:04:55;;;;;;;1.67;0.95;;;28.00;40.30;;;;;;5031451;28;20025;-68
2021/08/07 13:07:29;;;;;;;2.22;0.93;;;27.80;40.90;;;;;;5031774;28;20033;-66
2021/08/07 13:10:19;;;;;;;4.90;1.38;;;28.00;39.80;;;;;;5032222;28;20025;-68
2021/08/07 13:12:44;;;;;;;1.77;1.02;;;28.00;40.50;;;;;;5042744;28;20056;-68
2021/08/07 13:15:10;;;;;;;2.15;1.00;;;28.20;39.80;;;;;;5029732;28;20052;-69
2021/08/07 13:17:43;;;;;;;4.32;1.33;;;28.40;40.10;;;;;;5039652;28;20108;-69
2021/08/07 13:20:14;;;;;;;1.73;0.98;;;28.50;39.40;;;;;;5044165;28;20039;-68
2021/08/07 13:22:44;;;;;;;2.65;1.23;;;28.20;41.00;;;;;;5049863;28;20013;-70
2021/08/07 13:25:17;;;;;;;1.17;0.90;;;27.90;40.20;;;;;;5038013;28;20021;-68
2021/08/07 13:27:45;;;;;;;3.90;1.05;;;28.20;40.90;;;;;;5051544;28;20501;-69
2021/08/07 13:30:16;;;;;;;2.40;1.15;;;28.50;38.90;;;;;;5038433;28;20140;-69
2021/08/07 13:32:42;;;;;;;1.00;0.88;;;28.50;38.80;;;;;;5030452;28;20096;-69
2021/08/07 13:35:13;;;;;;;3.25;1.20;;;28.40;39.20;;;;;;5031014;28;20407;-69
2021/08/07 13:37:41;;;;;;;3.35;1.00;;;28.40;39.10;;;;;;5030296;28;20028;-70
2021/08/07 13:40:08;;;;;;;1.45;0.95;;;28.00;38.80;;;;;;5031733;28;20133;-69
2021/08/07 13:42:34;;;;;;;4.40;1.10;;;27.70;40.40;;;;;;5044572;28;20066;-68
2021/08/07 13:44:59;;;;;;;1.67;0.82;;;28.00;40.70;;;;;;5044392;28;20115;-68
2021/08/07 13:47:25;;;;;;;1.48;0.82;;;27.70;40.10;;;;;;5037754;28;20026;-69
2021/08/07 13:49:51;;;;;;;4.47;0.85;;;27.80;40.50;;;;;;5030997;28;20019;-70
2021/08/07 13:52:17;;;;;;;2.05;1.00;;;28.00;40.90;;;;;;5029567;28;20545;-70
2021/08/07 13:54:43;;;;;;;2.78;1.27;;;27.70;42.10;;;;;;5030206;28;20037;-69
2021/08/07 13:57:08;;;;;;;3.22;1.42;;;27.80;41.40;;;;;;5033858;28;20512;-68
2021/08/07 13:59:38;;;;;;;3.80;1.10;;;27.90;42.60;;;;;;5042689;28;20032;-68
2021/08/07 14:02:06;;;;;;;1.38;0.98;;;28.00;41.30;;;;;;5053985;28;20024;-68
2021/08/07 14:04:32;;;;;;;1.08;0.80;;;28.00;39.90;;;;;;5038254;28;20029;-68
2021/08/07 14:06:57;;;;;;;4.32;1.00;;;27.90;40.40;;;;;;5035297;28;20312;-66
2021/08/07 14:09:23;;;;;;;3.75;1.00;;;27.80;40.20;;;;;;5035300;28;20067;-68
2021/08/07 14:11:48;;;;;;;3.70;1.58;;;27.80;42.30;;;;;;5035183;28;20096;-69
2021/08/07 14:14:15;;;;;;;2.47;1.02;;;27.40;41.60;;;;;;5033878;28;20045;-70
2021/08/07 14:16:41;;;;;;;3.80;1.27;;;27.00;43.00;;;;;;5033384;28;20013;-69
2021/08/07 14:19:06;;;;;;;3.35;1.27;;;27.00;42.80;;;;;;5034555;28;20432;-68